createdAt,value
2023-10-17T00:01:52.139Z,64.11
2023-10-17T00:04:19.316Z,64.30
2023-10-17T00:06:59.718Z,64.32
2023-10-17T00:09:26.507Z,64.31
2023-10-17T00:11:54.903Z,64.67
2023-10-17T00:14:24.697Z,64.18
2023-10-17T00:16:54.594Z,64.75
2023-10-17T00:19:26.729Z,64.39
2023-10-17T00:21:54.301Z,64.13
2023-10-17T00:24:20.994Z,63.93
2023-10-17T00:26:50.378Z,64.23
2023-10-17T00:29:16.979Z,64.45
2023-10-17T00:31:45.804Z,63.78
2023-10-17T00:34:18.694Z,63.97
2023-10-17T00:37:01.177Z,63.70
2023-10-17T00:39:31.147Z,63.83
2023-10-17T00:42:07.361Z,63.68
2023-10-17T00:44:38.252Z,63.96
2023-10-17T00:47:07.070Z,65.35
2023-10-17T00:49:45.460Z,66.29
2023-10-17T00:52:23.747Z,67.01
2023-10-17T00:54:52.182Z,66.67
2023-10-17T00:57:21.002Z,66.82
2023-10-17T00:59:52.226Z,66.72
2023-10-17T01:02:31.356Z,67.17
2023-10-17T01:05:00.656Z,66.86
2023-10-17T01:07:31.392Z,66.00
2023-10-17T01:10:17.930Z,65.75
2023-10-17T01:12:57.602Z,65.71
2023-10-17T01:15:30.067Z,66.31
2023-10-17T01:17:59.152Z,66.06
2023-10-17T01:20:25.978Z,65.24
2023-10-17T01:22:57.679Z,65.00
2023-10-17T01:25:30.967Z,65.10
2023-10-17T01:27:59.123Z,64.85
2023-10-17T01:30:31.106Z,64.72
2023-10-17T01:32:58.478Z,64.35
2023-10-17T01:35:25.855Z,64.45
2023-10-17T01:37:56.985Z,64.71
2023-10-17T01:40:29.672Z,64.35
2023-10-17T01:43:01.229Z,64.11
2023-10-17T01:45:31.932Z,64.39
2023-10-17T01:47:59.608Z,64.82
2023-10-17T01:50:27.140Z,65.46
2023-10-17T01:53:01.035Z,65.77
2023-10-17T01:55:30.754Z,65.10
2023-10-17T01:58:00.153Z,64.62
2023-10-17T02:00:38.919Z,64.47
2023-10-17T02:03:09.326Z,64.52
2023-10-17T02:05:36.186Z,64.29
2023-10-17T02:08:02.991Z,65.42
2023-10-17T02:10:30.837Z,65.92
2023-10-17T02:12:57.686Z,65.58
2023-10-17T02:15:25.013Z,66.00
2023-10-17T02:17:52.905Z,66.03
2023-10-17T02:20:22.604Z,65.41
2023-10-17T02:22:53.055Z,65.68
2023-10-17T02:25:23.104Z,65.50
2023-10-17T02:27:50.343Z,65.07
2023-10-17T02:30:18.469Z,65.14
2023-10-17T02:32:57.316Z,65.08
2023-10-17T02:35:38.360Z,64.89
2023-10-17T02:38:06.859Z,64.96
2023-10-17T02:40:35.596Z,64.53
2023-10-17T02:43:02.438Z,65.03
2023-10-17T02:45:29.105Z,65.28
2023-10-17T02:48:07.499Z,65.47
2023-10-17T02:50:34.146Z,65.43
2023-10-17T02:53:00.769Z,65.50
2023-10-17T02:55:29.201Z,65.42
2023-10-17T02:57:56.018Z,65.38
2023-10-17T03:00:27.291Z,65.52
2023-10-17T03:02:56.634Z,65.46
2023-10-17T03:05:26.311Z,65.92
2023-10-17T03:07:52.925Z,65.62
2023-10-17T03:10:38.806Z,65.61
2023-10-17T03:13:24.683Z,65.48
2023-10-17T03:15:55.185Z,65.09
2023-10-17T03:18:22.902Z,65.40
2023-10-17T03:20:52.892Z,65.47
2023-10-17T03:23:20.724Z,65.12
2023-10-17T03:25:47.749Z,64.52
2023-10-17T03:28:16.805Z,64.21
2023-10-17T03:30:44.451Z,65.06
2023-10-17T03:33:15.346Z,64.79
2023-10-17T03:36:05.102Z,64.98
2023-10-17T03:38:33.449Z,64.55
2023-10-17T03:41:05.299Z,64.47
2023-10-17T03:43:39.453Z,64.07
2023-10-17T03:46:07.225Z,63.66
2023-10-17T03:48:38.185Z,64.23
2023-10-17T03:51:08.719Z,64.30
2023-10-17T03:53:54.557Z,64.76
2023-10-17T03:56:25.735Z,65.42
2023-10-17T03:59:19.416Z,65.57
2023-10-17T04:01:49.345Z,65.19
2023-10-17T04:04:27.478Z,64.52
2023-10-17T04:06:57.874Z,65.04
2023-10-17T04:09:29.008Z,65.27
2023-10-17T04:12:04.615Z,66.77
2023-10-17T04:14:35.266Z,66.45
2023-10-17T04:17:06.492Z,66.11
2023-10-17T04:19:40.871Z,66.15
2023-10-17T04:22:21.787Z,66.29
2023-10-17T04:24:50.580Z,66.80
2023-10-17T04:27:18.013Z,66.55
2023-10-17T04:29:58.518Z,65.76
2023-10-17T04:32:30.311Z,65.95
2023-10-17T04:34:57.427Z,65.96
2023-10-17T04:37:46.272Z,65.63
2023-10-17T04:40:29.325Z,64.89
2023-10-17T04:42:55.891Z,65.26
2023-10-17T04:45:25.005Z,65.38
2023-10-17T04:48:13.428Z,65.08
2023-10-17T04:50:57.823Z,64.85
2023-10-17T04:53:36.962Z,64.99
2023-10-17T04:56:14.012Z,64.77
2023-10-17T04:58:49.493Z,65.77
2023-10-17T05:01:39.508Z,65.75
2023-10-17T05:04:37.034Z,65.68
2023-10-17T05:07:03.668Z,65.59
2023-10-17T05:09:32.902Z,65.65
2023-10-17T05:12:25.518Z,65.87
2023-10-17T05:15:10.356Z,65.54
2023-10-17T05:17:55.543Z,66.12
2023-10-17T05:20:40.676Z,66.03
2023-10-17T05:23:27.482Z,65.95
2023-10-17T05:26:22.871Z,66.08
2023-10-17T05:29:12.875Z,65.71
2023-10-17T05:32:00.754Z,65.75
2023-10-17T05:34:49.102Z,65.39
2023-10-17T05:37:33.901Z,64.86
2023-10-17T05:40:18.912Z,65.13
2023-10-17T05:43:10.711Z,64.90
2023-10-17T05:45:56.040Z,65.28
2023-10-17T05:48:41.441Z,65.52
2023-10-17T05:51:26.651Z,66.25
2023-10-17T05:54:37.131Z,65.98
2023-10-17T05:57:17.134Z,66.10
2023-10-17T06:00:02.375Z,65.88
2023-10-17T06:05:52.906Z,65.89
2023-10-17T06:06:21.538Z,66.07
2023-10-17T06:09:10.726Z,65.76
2023-10-17T06:11:55.981Z,66.37
2023-10-17T06:14:40.953Z,65.95
2023-10-17T06:17:23.411Z,65.95
2023-10-17T06:19:53.414Z,66.46
2023-10-17T06:22:26.026Z,66.87
2023-10-17T06:25:12.524Z,67.38
2023-10-17T06:27:57.754Z,68.17
2023-10-17T06:30:46.977Z,69.40
2023-10-17T06:33:20.599Z,69.86
2023-10-17T06:35:54.164Z,70.05
2023-10-17T06:38:28.511Z,70.79
2023-10-17T06:41:12.667Z,70.74
2023-10-17T06:43:41.495Z,70.90
2023-10-17T06:46:13.892Z,70.29
2023-10-17T06:48:50.490Z,69.89
2023-10-17T06:51:20.393Z,70.44
2023-10-17T06:53:48.325Z,69.73
2023-10-17T06:56:16.546Z,70.18
2023-10-17T06:58:43.359Z,70.04
2023-10-17T07:01:21.265Z,70.82
2023-10-17T07:03:48.252Z,70.89
2023-10-17T07:06:15.584Z,71.01
2023-10-17T07:08:43.193Z,71.12
2023-10-17T07:11:18.870Z,70.78
2023-10-17T07:14:11.539Z,71.00
2023-10-17T07:16:42.606Z,70.03
2023-10-17T07:19:26.053Z,70.58
2023-10-17T07:22:00.948Z,69.77
2023-10-17T07:24:35.449Z,68.90
2023-10-17T07:27:03.658Z,67.43
2023-10-17T07:29:37.644Z,67.90
2023-10-17T07:32:11.174Z,64.80
2023-10-17T07:34:38.427Z,63.35
2023-10-17T07:37:23.867Z,62.98
2023-10-17T07:40:09.715Z,61.66
2023-10-17T07:42:42.591Z,61.91
2023-10-17T07:45:18.202Z,62.34
2023-10-17T07:47:53.067Z,60.90
2023-10-17T07:50:22.317Z,58.65
2023-10-17T07:52:51.984Z,58.34
2023-10-17T07:55:19.440Z,57.57
2023-10-17T07:57:52.928Z,57.94
2023-10-17T08:00:35.365Z,57.77
2023-10-17T08:03:29.331Z,58.26
2023-10-17T08:06:06.264Z,58.73
2023-10-17T08:08:37.657Z,57.56
2023-10-17T08:11:09.463Z,56.64
2023-10-17T08:13:35.997Z,57.62
2023-10-17T08:16:11.674Z,56.30
2023-10-17T08:18:41.491Z,56.03
2023-10-17T08:21:20.010Z,54.93
2023-10-17T08:23:47.763Z,54.82
2023-10-17T08:26:18.296Z,54.63
2023-10-17T08:28:45.308Z,53.61
2023-10-17T08:31:26.477Z,53.05
2023-10-17T08:34:05.168Z,52.20
2023-10-17T08:36:49.868Z,52.56
2023-10-17T08:39:30.850Z,51.45
2023-10-17T08:42:01.449Z,50.73
2023-10-17T08:44:33.394Z,51.02
2023-10-17T08:47:00.855Z,52.31
2023-10-17T08:49:32.857Z,50.57
2023-10-17T08:51:59.980Z,50.14
2023-10-17T08:54:31.226Z,48.73
2023-10-17T08:57:01.161Z,48.96
2023-10-17T08:59:43.058Z,49.41
2023-10-17T09:02:31.267Z,49.26
2023-10-17T09:05:07.566Z,48.33
2023-10-17T09:07:42.670Z,48.98
2023-10-17T09:10:37.825Z,48.81
2023-10-17T09:13:18.816Z,48.72
2023-10-17T09:16:00.644Z,48.71
2023-10-17T09:18:30.605Z,48.25
2023-10-17T09:20:58.019Z,48.20
2023-10-17T09:23:25.973Z,48.44
2023-10-17T09:25:57.341Z,47.79
2023-10-17T09:28:26.830Z,47.52
2023-10-17T09:31:04.281Z,48.69
2023-10-17T09:33:33.005Z,47.87
2023-10-17T09:36:05.513Z,47.33
2023-10-17T09:38:34.286Z,47.47
2023-10-17T09:41:17.764Z,48.00
2023-10-17T09:43:50.772Z,48.17
2023-10-17T09:46:19.873Z,48.44
2023-10-17T09:48:48.231Z,47.05
2023-10-17T09:51:28.584Z,47.61
2023-10-17T09:53:59.877Z,47.58
2023-10-17T09:56:38.035Z,46.97
2023-10-17T09:59:08.359Z,46.53
2023-10-17T10:01:36.909Z,46.81
2023-10-17T10:04:04.349Z,46.67
2023-10-17T10:06:35.627Z,46.42
2023-10-17T10:09:02.186Z,45.56
2023-10-17T10:11:51.005Z,44.71
2023-10-17T10:14:34.853Z,44.08
2023-10-17T10:17:05.259Z,43.99
2023-10-17T10:19:44.898Z,43.16
2023-10-17T10:22:14.139Z,44.56
2023-10-17T10:24:42.866Z,43.64
2023-10-17T10:27:09.437Z,44.50
2023-10-17T10:29:36.096Z,45.48
2023-10-17T10:32:09.119Z,45.64
2023-10-17T10:34:37.110Z,46.56
2023-10-17T10:37:10.287Z,47.59
2023-10-17T10:39:37.175Z,48.03
2023-10-17T10:42:08.487Z,45.32
2023-10-17T10:44:42.319Z,44.04
2023-10-17T10:47:09.778Z,44.23
2023-10-17T10:49:36.655Z,45.03
2023-10-17T10:52:04.460Z,46.18
2023-10-17T10:54:50.902Z,46.56
2023-10-17T10:57:30.282Z,45.71
2023-10-17T10:59:56.849Z,46.38
2023-10-17T11:02:24.883Z,46.44
2023-10-17T11:04:54.552Z,44.79
2023-10-17T11:07:25.326Z,44.78
2023-10-17T11:10:15.083Z,43.72
2023-10-17T11:12:53.435Z,43.85
2023-10-17T11:15:23.046Z,45.06
2023-10-17T11:17:50.084Z,47.71
2023-10-17T11:20:19.850Z,42.95
2023-10-17T11:22:50.564Z,43.82
2023-10-17T11:25:27.822Z,42.90
2023-10-17T11:27:57.582Z,42.84
2023-10-17T11:30:34.131Z,43.53
2023-10-17T11:33:03.870Z,41.81
2023-10-17T11:35:30.748Z,44.00
2023-10-17T11:38:07.979Z,45.46
2023-10-17T11:40:45.612Z,43.49
2023-10-17T11:43:19.939Z,44.71
2023-10-17T11:45:47.548Z,43.29
2023-10-17T11:48:46.260Z,43.52
2023-10-17T11:51:14.675Z,43.35
2023-10-17T11:54:07.623Z,46.82
2023-10-17T11:56:42.090Z,45.36
2023-10-17T11:59:11.804Z,46.39
2023-10-17T12:01:38.508Z,44.13
2023-10-17T12:04:09.874Z,42.36
2023-10-17T12:06:47.474Z,44.52
2023-10-17T12:09:24.068Z,42.73
2023-10-17T12:11:55.509Z,42.91
2023-10-17T12:14:22.668Z,42.73
2023-10-17T12:16:56.155Z,41.88
2023-10-17T12:19:23.925Z,41.54
2023-10-17T12:21:53.246Z,41.27
2023-10-17T12:24:21.170Z,43.39
2023-10-17T12:26:48.659Z,43.31
2023-10-17T12:29:15.224Z,41.00
2023-10-17T12:31:41.929Z,41.55
2023-10-17T12:34:11.530Z,41.99
2023-10-17T12:36:38.889Z,42.03
2023-10-17T12:39:09.114Z,41.15
2023-10-17T12:41:36.428Z,42.34
2023-10-17T12:44:03.652Z,41.86
2023-10-17T12:46:30.926Z,43.57
2023-10-17T12:48:57.864Z,42.06
2023-10-17T12:51:24.630Z,40.63
2023-10-17T12:53:51.329Z,41.22
2023-10-17T12:56:19.181Z,41.16
2023-10-17T12:58:45.875Z,40.18
2023-10-17T13:01:15.504Z,41.02
2023-10-17T13:03:42.391Z,40.20
2023-10-17T13:06:12.272Z,40.10
2023-10-17T13:08:38.902Z,40.67
2023-10-17T13:11:05.455Z,40.55
2023-10-17T13:13:32.099Z,40.77
2023-10-17T13:15:59.016Z,43.10
2023-10-17T13:18:26.313Z,41.15
2023-10-17T13:21:10.813Z,40.51
2023-10-17T13:23:38.650Z,40.54
2023-10-17T13:26:09.752Z,40.46
2023-10-17T13:28:36.366Z,42.69
2023-10-17T13:31:09.877Z,40.03
2023-10-17T13:33:36.463Z,40.89
2023-10-17T13:36:03.129Z,40.92
2023-10-17T13:38:29.724Z,40.05
2023-10-17T13:41:04.632Z,42.08
2023-10-17T13:43:31.235Z,42.00
2023-10-17T13:45:57.782Z,42.19
2023-10-17T13:48:24.395Z,43.44
2023-10-17T13:50:51.104Z,43.73
2023-10-17T13:53:21.634Z,43.89
2023-10-17T13:55:48.184Z,44.74
2023-10-17T13:58:16.869Z,44.87
2023-10-17T14:00:52.382Z,41.32
2023-10-17T14:03:20.904Z,42.75
2023-10-17T14:05:48.966Z,42.23
2023-10-17T14:08:16.921Z,42.08
2023-10-17T14:10:44.997Z,44.99
2023-10-17T14:13:13.479Z,43.23
2023-10-17T14:15:41.080Z,44.06
2023-10-17T14:18:10.921Z,44.36
2023-10-17T14:20:40.401Z,44.68
2023-10-17T14:23:13.982Z,46.09
2023-10-17T14:28:22.448Z,43.38
2023-10-17T14:30:50.066Z,45.57
2023-10-17T14:33:17.090Z,45.67
2023-10-17T14:35:49.620Z,44.45
2023-10-17T14:38:17.707Z,44.52
2023-10-17T14:40:45.528Z,44.89
2023-10-17T14:43:14.453Z,45.43
2023-10-17T14:45:42.634Z,46.98
2023-10-17T14:48:12.733Z,46.92
2023-10-17T14:50:40.427Z,47.44
2023-10-17T14:53:08.008Z,47.75
2023-10-17T14:55:35.344Z,48.67
2023-10-17T14:58:02.924Z,48.57
2023-10-17T15:00:35.679Z,48.72
2023-10-17T15:03:02.436Z,48.87
2023-10-17T15:05:29.009Z,48.88
2023-10-17T15:07:55.791Z,49.51
2023-10-17T15:10:22.836Z,50.43
2023-10-17T15:12:50.142Z,49.80
2023-10-17T15:15:16.785Z,49.57
2023-10-17T15:17:44.454Z,50.11
2023-10-17T15:20:13.686Z,49.77
2023-10-17T15:22:47.142Z,51.04
2023-10-17T15:25:13.928Z,51.75
2023-10-17T15:27:44.802Z,52.29
2023-10-17T15:32:46.679Z,51.67
2023-10-17T15:35:16.457Z,51.71
2023-10-17T15:37:47.896Z,51.97
2023-10-17T15:40:21.082Z,51.81
2023-10-17T15:42:50.927Z,51.60
2023-10-17T15:45:20.769Z,52.28
2023-10-17T15:47:51.875Z,52.22
2023-10-17T15:50:18.995Z,52.17
2023-10-17T15:52:46.610Z,52.05
2023-10-17T15:55:13.825Z,51.09
2023-10-17T15:57:43.196Z,51.33
2023-10-17T16:00:20.956Z,51.25
2023-10-17T16:02:47.776Z,51.44
2023-10-17T16:05:15.291Z,51.84
2023-10-17T16:07:45.530Z,52.29
2023-10-17T16:10:14.854Z,51.82
2023-10-17T16:12:46.917Z,51.74
2023-10-17T16:15:14.306Z,52.84
2023-10-17T16:17:40.973Z,53.27
2023-10-17T16:20:09.784Z,52.62
2023-10-17T16:22:37.125Z,53.90
2023-10-17T16:25:09.052Z,54.34
2023-10-17T16:27:37.154Z,53.98
2023-10-17T16:30:07.023Z,54.48
2023-10-17T16:32:34.415Z,54.43
2023-10-17T16:35:46.407Z,54.38
2023-10-17T16:38:15.911Z,53.70
2023-10-17T16:40:45.059Z,54.27
2023-10-17T16:43:13.773Z,54.44
2023-10-17T16:45:53.639Z,55.13
2023-10-17T16:48:20.282Z,54.19
2023-10-17T16:50:48.950Z,54.93
2023-10-17T16:53:16.738Z,54.74
2023-10-17T16:55:43.794Z,54.10
2023-10-17T16:58:10.499Z,54.56
2023-10-17T17:00:37.557Z,54.53
2023-10-17T17:03:06.587Z,54.29
2023-10-17T17:05:33.739Z,54.78
2023-10-17T17:08:01.376Z,55.06
2023-10-17T17:10:29.658Z,54.77
2023-10-17T17:13:03.621Z,54.84
2023-10-17T17:15:30.447Z,54.49
2023-10-17T17:18:13.882Z,54.38
2023-10-17T17:20:43.599Z,54.13
2023-10-17T17:23:10.113Z,53.92
2023-10-17T17:25:39.768Z,53.92
2023-10-17T17:28:06.563Z,53.86
2023-10-17T17:30:34.047Z,53.86
2023-10-17T17:33:00.934Z,54.73
2023-10-17T17:35:27.560Z,55.01
2023-10-17T17:37:55.217Z,54.51
2023-10-17T17:40:21.864Z,53.82
2023-10-17T17:42:49.840Z,53.59
2023-10-17T17:45:16.466Z,55.63
2023-10-17T17:47:43.820Z,54.70
2023-10-17T17:50:11.651Z,55.00
2023-10-17T17:52:40.431Z,54.57
2023-10-17T17:55:11.879Z,54.09
2023-10-17T17:57:39.745Z,54.28
2023-10-17T18:00:10.719Z,54.92
2023-10-17T18:02:37.456Z,54.55
2023-10-17T18:05:04.388Z,54.42
2023-10-17T18:07:31.155Z,54.77
2023-10-17T18:10:10.915Z,55.04
2023-10-17T18:12:38.011Z,55.86
2023-10-17T18:15:05.131Z,55.90
2023-10-17T18:17:35.082Z,55.92
2023-10-17T18:20:01.852Z,55.87
2023-10-17T18:22:29.531Z,56.01
2023-10-17T18:24:57.387Z,55.64
2023-10-17T18:27:25.734Z,55.82
2023-10-17T18:29:52.331Z,55.86
2023-10-17T18:32:19.452Z,55.96
2023-10-17T18:34:46.949Z,55.78
2023-10-17T18:37:13.523Z,55.59
2023-10-17T18:39:40.202Z,55.41
2023-10-17T18:42:07.098Z,55.34
2023-10-17T18:44:35.372Z,55.62
2023-10-17T18:47:02.311Z,55.54
2023-10-17T18:49:29.164Z,55.74
2023-10-17T18:51:56.003Z,55.31
2023-10-17T18:54:22.705Z,55.40
2023-10-17T18:56:49.510Z,55.65
2023-10-17T18:59:16.109Z,55.65
2023-10-17T19:01:42.900Z,55.76
2023-10-17T19:04:09.618Z,55.95
2023-10-17T19:06:36.527Z,56.21
2023-10-17T19:09:03.978Z,56.06
2023-10-17T19:11:30.693Z,56.30
2023-10-17T19:13:57.387Z,56.35
2023-10-17T19:16:24.145Z,56.43
2023-10-17T19:18:50.797Z,56.24
2023-10-17T19:21:17.417Z,56.37
2023-10-17T19:23:45.667Z,56.54
2023-10-17T19:26:16.856Z,56.14
2023-10-17T19:28:44.689Z,56.46
2023-10-17T19:31:12.436Z,56.97
2023-10-17T19:33:39.584Z,57.77
2023-10-17T19:36:06.997Z,57.59
2023-10-17T19:38:33.725Z,57.52
2023-10-17T19:41:00.586Z,57.62
2023-10-17T19:43:27.389Z,57.54
2023-10-17T19:45:57.508Z,58.05
2023-10-17T19:48:24.573Z,58.27
2023-10-17T19:50:52.912Z,58.78
2023-10-17T19:53:19.654Z,58.95
2023-10-17T19:55:46.536Z,58.31
2023-10-17T19:58:13.279Z,58.37
2023-10-17T20:00:39.993Z,58.07
2023-10-17T20:03:07.114Z,58.39
2023-10-17T20:05:33.789Z,58.50
2023-10-17T20:08:00.561Z,58.94
2023-10-17T20:10:29.390Z,58.62
2023-10-17T20:12:56.333Z,59.04
2023-10-17T20:15:23.689Z,59.30
2023-10-17T20:17:50.997Z,59.43
2023-10-17T20:20:20.689Z,59.14
2023-10-17T20:22:47.375Z,59.01
2023-10-17T20:25:16.899Z,58.86
2023-10-17T20:27:46.500Z,59.18
2023-10-17T20:30:13.451Z,59.14
2023-10-17T20:32:40.189Z,59.56
2023-10-17T20:35:07.269Z,59.65
2023-10-17T20:37:35.917Z,59.70
2023-10-17T20:40:12.555Z,60.21
2023-10-17T20:42:41.288Z,60.36
2023-10-17T20:45:13.831Z,60.24
2023-10-17T20:47:41.658Z,60.15
2023-10-17T20:50:10.471Z,59.96
2023-10-17T20:52:38.576Z,60.04
2023-10-17T20:55:07.063Z,59.60
2023-10-17T20:57:34.572Z,59.62
2023-10-17T21:00:01.355Z,59.80
2023-10-17T21:02:30.430Z,59.78
2023-10-17T21:04:57.530Z,59.71
2023-10-17T21:07:24.256Z,59.75
2023-10-17T21:09:50.903Z,59.54
2023-10-17T21:12:17.499Z,59.54
2023-10-17T21:14:44.358Z,59.85
2023-10-17T21:17:11.114Z,59.93
2023-10-17T21:19:37.709Z,59.58
2023-10-17T21:22:04.869Z,59.69
2023-10-17T21:24:31.508Z,59.80
2023-10-17T21:26:58.026Z,59.95
2023-10-17T21:29:24.642Z,59.97
2023-10-17T21:31:51.717Z,60.13
2023-10-17T21:34:18.421Z,60.10
2023-10-17T21:36:45.010Z,60.13
2023-10-17T21:39:16.984Z,60.37
2023-10-17T21:41:45.061Z,60.02
2023-10-17T21:44:12.519Z,60.64
2023-10-17T21:46:39.247Z,60.55
2023-10-17T21:49:05.916Z,60.72
2023-10-17T21:51:32.578Z,60.35
2023-10-17T21:53:59.230Z,60.71
2023-10-17T21:56:25.834Z,60.50
2023-10-17T21:58:52.394Z,60.40
2023-10-17T22:01:22.473Z,61.02
2023-10-17T22:03:49.980Z,61.17
2023-10-17T22:06:16.835Z,60.96
2023-10-17T22:08:45.846Z,61.14
2023-10-17T22:11:16.952Z,60.50
2023-10-17T22:13:53.020Z,60.54
2023-10-17T22:16:23.083Z,60.64
2023-10-17T22:18:50.288Z,60.71
2023-10-17T22:21:23.402Z,60.31
2023-10-17T22:23:50.340Z,61.16
2023-10-17T22:26:17.435Z,61.34
2023-10-17T22:28:44.034Z,62.21
2023-10-17T22:31:11.036Z,61.96
2023-10-17T22:33:38.779Z,62.14
2023-10-17T22:36:06.997Z,62.54
2023-10-17T22:38:33.585Z,62.50
2023-10-17T22:41:00.152Z,62.32
2023-10-17T22:43:26.737Z,61.89
2023-10-17T22:45:53.399Z,62.01
2023-10-17T22:48:20.041Z,61.99
2023-10-17T22:50:46.679Z,62.30
2023-10-17T22:53:14.007Z,62.43
2023-10-17T22:55:41.444Z,62.66
2023-10-17T22:58:08.697Z,62.90
2023-10-17T23:00:37.993Z,62.99
2023-10-17T23:03:06.523Z,63.41
2023-10-17T23:05:34.159Z,63.03
2023-10-17T23:08:02.285Z,62.80
2023-10-17T23:10:30.022Z,62.71
2023-10-17T23:12:58.200Z,63.06
2023-10-17T23:15:25.836Z,63.13
2023-10-17T23:17:52.563Z,63.04
2023-10-17T23:20:19.564Z,62.89
2023-10-17T23:22:47.552Z,63.11
2023-10-17T23:25:14.405Z,63.57
2023-10-17T23:27:42.133Z,63.78
2023-10-17T23:30:16.442Z,64.03
2023-10-17T23:32:47.237Z,64.61
2023-10-17T23:35:16.686Z,64.76
2023-10-17T23:37:46.825Z,64.43
2023-10-17T23:40:18.096Z,64.33
2023-10-17T23:42:48.621Z,64.27
2023-10-17T23:45:19.763Z,63.78
2023-10-17T23:47:48.295Z,63.71
2023-10-17T23:50:20.226Z,63.67
2023-10-17T23:52:48.378Z,63.51
2023-10-17T23:55:15.592Z,64.04
2023-10-17T23:57:47.767Z,64.11
